Time;durP1;ratioP1;P1;durP2;ratioP2;P2;SDS_P1;SDS_P2;PMS_P1;PMS_P2;Temp;Humidity;BMP_temperature;BMP_pressure;BME280_temperature;BME280_humidity;BME280_pressure;Samples;Min_cycle;Max_cycle;Signal;HPM_P1;HPM_P2
2023/09/12 00:04:41;;;;;;;19.80;16.30;;;;;;;14.70;78.82;99546.31;217967;1260;141771;-78
2023/09/12 00:09:44;;;;;;;15.30;13.70;;;;;;;14.67;78.67;99543.96;217824;1260;139909;-70
2023/09/12 00:14:48;;;;;;;18.60;14.00;;;;;;;14.63;78.84;99543.86;219209;1260;139881;-73
2023/09/12 00:19:53;;;;;;;16.00;13.90;;;;;;;14.56;78.90;99542.45;218259;1257;140381;-72
2023/09/12 00:24:55;;;;;;;19.10;13.60;;;;;;;14.48;79.33;99541.18;218066;1257;140373;-74
2023/09/12 00:29:58;;;;;;;19.10;14.50;;;;;;;14.40;79.63;99541.96;218176;1257;140313;-76
2023/09/12 00:35:01;;;;;;;21.60;15.30;;;;;;;14.34;80.22;99540.92;218173;1257;139914;-73
2023/09/12 00:40:04;;;;;;;22.40;14.30;;;;;;;14.33;80.23;99542.64;218060;1257;140157;-91
2023/09/12 00:45:08;;;;;;;18.40;15.30;;;;;;;14.32;80.44;99542.52;217785;1260;140581;-79
2023/09/12 00:50:11;;;;;;;17.10;12.30;;;;;;;14.30;80.41;99547.02;218231;1257;143410;-73
2023/09/12 00:55:15;;;;;;;17.20;15.30;;;;;;;14.19;80.51;99543.65;217909;1257;140257;-72
2023/09/12 01:00:18;;;;;;;17.30;13.30;;;;;;;14.07;80.76;99544.03;217556;1257;141729;-73
2023/09/12 01:05:23;;;;;;;18.10;14.50;;;;;;;13.99;81.00;99542.35;218262;1257;140846;-84
2023/09/12 01:10:26;;;;;;;18.40;15.00;;;;;;;13.94;81.46;99537.55;217744;1258;139785;-73
2023/09/12 01:15:29;;;;;;;18.30;14.30;;;;;;;13.95;81.50;99536.05;218324;1257;140788;-76
2023/09/12 01:20:35;;;;;;;19.20;14.40;;;;;;;13.97;81.27;99535.74;217778;1260;230174;-74
2023/09/12 01:25:45;;;;;;;23.70;12.90;;;;;;;13.99;81.37;99535.27;217605;1260;140858;-73
2023/09/12 01:30:50;;;;;;;14.50;12.70;;;;;;;13.97;80.91;99536.86;217545;1257;139242;-75
2023/09/12 01:35:55;;;;;;;17.30;12.30;;;;;;;13.88;80.98;99532.10;217623;1257;141711;-74
2023/09/12 01:40:59;;;;;;;16.70;13.10;;;;;;;13.75;80.91;99531.72;217456;1258;141946;-76
2023/09/12 01:46:03;;;;;;;16.80;12.60;;;;;;;13.65;81.03;99534.77;217617;1257;139929;-71
2023/09/12 01:51:07;;;;;;;15.10;13.50;;;;;;;13.58;81.38;99537.63;217710;1260;139935;-76
2023/09/12 01:56:14;;;;;;;13.90;12.60;;;;;;;13.52;81.59;99541.39;217909;1257;140108;-85
2023/09/12 02:01:17;;;;;;;20.20;15.90;;;;;;;13.48;81.79;99543.61;217938;1257;139943;-79
2023/09/12 02:06:21;;;;;;;17.80;13.40;;;;;;;13.50;81.81;99542.77;218187;1257;140273;-89
2023/09/12 02:11:26;;;;;;;16.80;12.30;;;;;;;13.51;82.03;99538.06;217574;1259;139839;-78
2023/09/12 02:16:31;;;;;;;15.60;13.50;;;;;;;13.47;81.71;99543.77;217716;1257;141490;-77
2023/09/12 02:21:33;;;;;;;13.90;12.40;;;;;;;13.45;81.69;99539.96;217723;1257;140865;-74
2023/09/12 02:26:36;;;;;;;17.90;13.50;;;;;;;13.42;81.58;99541.02;219036;1256;140492;-70
2023/09/12 02:31:39;;;;;;;16.80;12.20;;;;;;;13.39;81.50;99542.19;219031;1257;140830;-71
2023/09/12 02:36:43;;;;;;;14.20;12.70;;;;;;;13.34;81.24;99540.90;219272;1257;140251;-72
2023/09/12 02:41:46;;;;;;;19.20;14.40;;;;;;;13.33;81.38;99543.30;218429;1256;141585;-71
2023/09/12 02:46:51;;;;;;;23.90;14.20;;;;;;;13.31;81.17;99541.84;218064;1257;140063;-71
2023/09/12 02:51:54;;;;;;;12.60;11.30;;;;;;;13.26;81.13;99537.73;217187;1257;140436;-70
2023/09/12 02:56:57;;;;;;;19.70;14.50;;;;;;;13.21;81.47;99536.14;218391;1256;139970;-71
2023/09/12 03:02:01;;;;;;;17.60;14.40;;;;;;;13.20;81.38;99537.37;217893;1257;141194;-70
2023/09/12 03:07:06;;;;;;;17.70;14.50;;;;;;;13.19;81.49;99541.05;217740;1260;140626;-70
2023/09/12 03:12:09;;;;;;;20.60;14.90;;;;;;;13.14;81.44;99538.97;218005;1257;141305;-70
2023/09/12 03:17:12;;;;;;;13.30;11.20;;;;;;;13.12;81.66;99545.86;217632;1260;141029;-75
2023/09/12 03:22:15;;;;;;;15.40;13.30;;;;;;;13.04;81.54;99540.16;217346;1260;142112;-74
2023/09/12 03:27:18;;;;;;;14.40;12.20;;;;;;;12.98;81.80;99540.48;217451;1257;140529;-71
2023/09/12 03:32:22;;;;;;;17.80;14.10;;;;;;;12.95;82.10;99533.61;217946;1257;141740;-72
2023/09/12 03:37:27;;;;;;;15.90;13.30;;;;;;;12.93;82.38;99538.79;219002;1256;139883;-76
2023/09/12 03:42:30;;;;;;;19.20;14.60;;;;;;;12.92;82.30;99545.73;218341;1256;140772;-72
2023/09/12 03:47:46;;;;;;;17.70;14.70;;;;;;;12.98;82.75;99552.42;217648;1256;140878;-74
2023/09/12 03:52:50;;;;;;;19.80;15.50;;;;;;;12.99;82.70;99557.41;217779;1257;141480;-79
2023/09/12 03:57:53;;;;;;;12.50;10.90;;;;;;;12.95;82.57;99557.42;217440;1257;141006;-79
2023/09/12 04:02:57;;;;;;;18.10;14.30;;;;;;;12.83;82.33;99554.80;220096;1256;140896;-81
2023/09/12 04:08:00;;;;;;;14.30;12.90;;;;;;;12.73;82.34;99560.06;218576;1256;139765;-79
2023/09/12 04:13:02;;;;;;;14.80;12.40;;;;;;;12.71;82.47;99559.23;218272;1256;140852;-79
2023/09/12 04:18:05;;;;;;;26.30;15.50;;;;;;;12.67;82.73;99560.90;220213;1256;141015;-79
2023/09/12 04:23:08;;;;;;;16.70;13.90;;;;;;;12.69;82.74;99561.95;218966;1256;142068;-78
2023/09/12 04:28:11;;;;;;;16.10;13.30;;;;;;;12.72;82.69;99560.91;220136;1256;140997;-80
2023/09/12 04:33:14;;;;;;;13.60;12.20;;;;;;;12.76;82.82;99561.86;219392;1257;141292;-81
2023/09/12 04:38:17;;;;;;;18.00;12.00;;;;;;;12.79;82.66;99564.40;218801;1256;141122;-79
2023/09/12 04:43:21;;;;;;;22.40;12.10;;;;;;;12.81;82.74;99569.52;218970;1256;140459;-71
2023/09/12 04:48:25;;;;;;;17.70;13.50;;;;;;;12.79;82.66;99573.39;217265;1257;140376;-70
2023/09/12 04:53:34;;;;;;;15.10;13.40;;;;;;;12.78;82.97;99570.39;219159;1257;140447;-74
2023/09/12 04:58:37;;;;;;;20.30;14.00;;;;;;;12.83;83.17;99572.52;217794;1256;140815;-74
2023/09/12 05:03:41;;;;;;;22.00;15.10;;;;;;;12.91;83.13;99575.95;219758;1256;140256;-75
2023/09/12 05:08:44;;;;;;;20.60;16.10;;;;;;;13.02;83.58;99576.96;218882;1256;139948;-70
2023/09/12 05:13:49;;;;;;;20.80;16.60;;;;;;;13.16;83.72;99575.34;217970;1257;140410;-74
2023/09/12 05:18:55;;;;;;;;;;;;;;;13.34;84.43;99575.02;217602;1256;140095;-74
2023/09/12 05:24:00;;;;;;;27.90;17.90;;;;;;;13.50;84.73;99579.61;218164;1256;126816;-74
2023/09/12 05:29:03;;;;;;;36.60;23.70;;;;;;;13.73;85.54;99581.33;218232;1256;141806;-75
2023/09/12 05:34:05;;;;;;;24.80;19.10;;;;;;;13.98;86.09;99582.95;218432;1259;141357;-74
2023/09/12 05:39:09;;;;;;;25.20;22.10;;;;;;;14.25;86.36;99582.98;218141;1257;140780;-75
2023/09/12 05:44:17;;;;;;;29.00;22.70;;;;;;;14.51;86.41;99581.80;217777;1256;139992;-76
2023/09/12 05:49:21;;;;;;;31.50;24.80;;;;;;;14.77;86.82;99578.58;217756;1260;246235;-72
2023/09/12 05:54:24;;;;;;;35.50;22.30;;;;;;;15.01;86.84;99581.52;217740;1257;140349;-73
2023/09/12 05:59:27;;;;;;;30.50;22.40;;;;;;;15.25;86.97;99585.13;218638;1256;140987;-74
2023/09/12 06:04:31;;;;;;;38.40;24.80;;;;;;;15.55;87.23;99593.34;218836;1256;142263;-73
2023/09/12 06:09:34;;;;;;;37.00;25.60;;;;;;;15.86;87.23;99594.05;218345;1256;140140;-71
2023/09/12 06:14:37;;;;;;;29.50;22.10;;;;;;;16.13;87.18;99592.58;218333;1256;141822;-73
2023/09/12 06:19:41;;;;;;;27.70;22.70;;;;;;;16.39;86.99;99597.15;220164;1256;140455;-74
2023/09/12 06:24:44;;;;;;;25.70;22.10;;;;;;;16.67;87.03;99599.94;220377;1257;140513;-73
2023/09/12 06:29:49;;;;;;;27.40;21.70;;;;;;;16.94;86.76;99600.84;220296;1257;140718;-74
2023/09/12 06:34:53;;;;;;;31.30;24.60;;;;;;;17.22;86.45;99603.35;219048;1259;140541;-74
2023/09/12 06:39:55;;;;;;;24.90;21.00;;;;;;;17.49;86.24;99603.59;218324;1256;141082;-72
2023/09/12 06:45:00;;;;;;;34.40;23.50;;;;;;;17.81;85.91;99604.62;217398;1256;139860;-72
2023/09/12 06:50:03;;;;;;;27.40;23.40;;;;;;;18.12;85.64;99605.23;218584;1256;140253;-73
2023/09/12 06:55:09;;;;;;;33.60;25.20;;;;;;;18.50;85.52;99608.45;217232;1262;140208;-72
2023/09/12 07:00:13;;;;;;;32.80;24.90;;;;;;;19.07;85.07;99608.64;217676;1257;139640;-73
2023/09/12 07:05:17;;;;;;;29.30;23.60;;;;;;;19.94;84.49;99609.13;218180;1258;141104;-72
2023/09/12 07:10:20;;;;;;;30.70;23.20;;;;;;;21.15;83.66;99613.73;217555;1257;140036;-72
2023/09/12 07:15:28;;;;;;;43.80;24.60;;;;;;;22.66;82.05;99610.77;217333;1257;140553;-72
2023/09/12 07:20:32;;;;;;;24.90;22.40;;;;;;;24.20;79.97;99610.66;217563;1256;139347;-71
2023/09/12 07:25:44;;;;;;;22.90;19.80;;;;;;;25.51;77.56;99611.45;217134;1257;139844;-72
2023/09/12 07:30:48;;;;;;;22.80;18.80;;;;;;;26.22;74.83;99614.70;217827;1259;138804;-72
2023/09/12 07:35:54;;;;;;;22.00;19.50;;;;;;;26.61;73.22;99623.05;217358;1256;191690;-72
2023/09/12 07:40:58;;;;;;;20.70;18.70;;;;;;;26.93;71.34;99623.33;217910;1259;139986;-72
2023/09/12 07:46:02;;;;;;;24.20;20.10;;;;;;;27.32;69.91;99626.27;218107;1256;139160;-72
2023/09/12 07:51:14;;;;;;;26.70;17.20;;;;;;;27.67;68.76;99627.05;217341;1259;140770;-72
2023/09/12 07:56:17;;;;;;;19.40;17.40;;;;;;;27.81;67.02;99626.67;217322;1256;139839;-72
2023/09/12 08:01:20;;;;;;;19.50;17.00;;;;;;;27.93;65.86;99623.83;217316;1257;139552;-72
2023/09/12 08:06:24;;;;;;;16.60;15.00;;;;;;;27.96;65.06;99627.58;217498;1257;140148;-72
2023/09/12 08:11:27;;;;;;;17.10;15.30;;;;;;;27.97;63.94;99627.98;217926;1256;140623;-76
2023/09/12 08:16:30;;;;;;;17.10;15.20;;;;;;;28.05;63.14;99625.92;219310;1256;140345;-76
2023/09/12 08:21:37;;;;;;;16.70;15.00;;;;;;;28.05;62.32;99624.52;218293;1257;140277;-72
2023/09/12 08:26:40;;;;;;;15.70;14.10;;;;;;;28.07;60.83;99625.45;219599;1258;139544;-73
2023/09/12 08:31:46;;;;;;;14.00;12.60;;;;;;;28.14;60.14;99623.33;217481;1256;139352;-74
2023/09/12 08:36:50;;;;;;;14.60;13.30;;;;;;;28.25;59.52;99623.85;218556;1256;140621;-74
2023/09/12 08:41:54;;;;;;;16.70;12.80;;;;;;;28.44;59.14;99619.76;217216;1259;139903;-74
2023/09/12 08:46:59;;;;;;;16.60;12.00;;;;;;;28.62;57.98;99625.83;217638;1256;138925;-75
2023/09/12 08:52:02;;;;;;;11.00;10.00;;;;;;;28.76;57.14;99627.45;218134;1256;139910;-74
2023/09/12 08:57:06;;;;;;;20.40;11.40;;;;;;;28.86;56.15;99629.34;218539;1257;139838;-74
2023/09/12 09:02:12;;;;;;;11.70;10.60;;;;;;;28.94;55.22;99627.23;217956;1260;138595;-75
2023/09/12 09:07:18;;;;;;;10.60;9.50;;;;;;;29.04;54.75;99626.98;217745;1258;139290;-76
2023/09/12 09:12:21;;;;;;;14.60;11.10;;;;;;;29.18;53.78;99623.73;217288;1256;139565;-74
2023/09/12 09:17:24;;;;;;;9.50;8.80;;;;;;;29.32;53.20;99620.49;217868;1260;140574;-75
2023/09/12 09:22:38;;;;;;;10.80;9.80;;;;;;;29.40;51.83;99622.44;217489;1260;139286;-75
2023/09/12 09:27:40;;;;;;;88.20;14.70;;;;;;;29.54;52.24;99626.18;217573;1259;139528;-71
2023/09/12 09:32:45;;;;;;;11.30;9.90;;;;;;;29.72;51.67;99622.56;217386;1257;141025;-78
2023/09/12 09:37:48;;;;;;;10.60;8.50;;;;;;;29.84;50.87;99617.30;217448;1256;140043;-75
2023/09/12 09:42:58;;;;;;;10.60;9.60;;;;;;;29.99;50.68;99616.63;217499;1260;140318;-75
2023/09/12 09:48:07;;;;;;;10.80;9.60;;;;;;;30.16;49.82;99613.55;217326;1257;139957;-76
2023/09/12 09:53:10;;;;;;;11.30;10.10;;;;;;;30.28;49.03;99614.02;217356;1260;140943;-76
2023/09/12 09:58:18;;;;;;;9.90;8.60;;;;;;;30.15;48.20;99608.42;218520;1257;139620;-75
2023/09/12 10:03:23;;;;;;;9.40;8.40;;;;;;;30.26;48.58;99603.33;218067;1257;139688;-75
2023/09/12 10:08:27;;;;;;;13.40;8.90;;;;;;;30.49;48.37;99597.38;219532;1256;138811;-77
2023/09/12 10:13:33;;;;;;;8.30;7.50;;;;;;;30.72;47.93;99594.73;218399;1259;141315;-76
2023/09/12 10:18:50;;;;;;;9.40;8.60;;;;;;;30.95;46.94;99592.27;217368;1260;139226;-77
2023/09/12 10:23:58;;;;;;;10.20;9.20;;;;;;;31.08;46.17;99594.40;220264;1257;139322;-78
2023/09/12 10:29:03;;;;;;;9.40;8.10;;;;;;;31.12;45.69;99590.92;220053;1257;139806;-78
2023/09/12 10:34:09;;;;;;;10.30;9.40;;;;;;;31.04;44.54;99591.84;217322;1259;139629;-75
2023/09/12 10:39:14;;;;;;;9.10;8.20;;;;;;;31.01;44.46;99591.17;218071;1259;141556;-78
2023/09/12 10:44:19;;;;;;;8.30;7.60;;;;;;;31.06;44.51;99587.45;217616;1261;140034;-79
2023/09/12 10:49:22;;;;;;;8.60;8.00;;;;;;;31.13;43.83;99582.05;217480;1261;139475;-78
2023/09/12 10:54:39;;;;;;;49.90;10.90;;;;;;;31.15;43.40;99579.34;217807;1256;139829;-81
2023/09/12 11:00:04;;;;;;;;;;;;;;;31.08;43.29;99580.56;217792;1262;140241;-80
2023/09/12 11:05:27;;;;;;;8.90;8.20;;;;;;;31.01;43.51;99583.63;217896;1259;126316;-83
2023/09/12 11:10:32;;;;;;;10.40;8.90;;;;;;;31.06;43.16;99579.27;217323;1261;139429;-82
2023/09/12 11:15:34;;;;;;;13.50;8.20;;;;;;;31.12;42.57;99573.95;218295;1260;139213;-85
2023/09/12 11:21:03;;;;;;;8.60;7.90;;;;;;;31.25;42.76;99576.52;217403;1259;140369;-83
2023/09/12 11:26:12;;;;;;;8.20;7.50;;;;;;;31.38;42.46;99575.17;218027;1260;139242;-85
2023/09/12 11:31:28;;;;;;;8.30;7.50;;;;;;;31.41;42.14;99574.80;217499;1257;140026;-80
2023/09/12 11:36:41;;;;;;;8.50;7.70;;;;;;;31.45;41.95;99573.60;218353;1257;140415;-81
2023/09/12 11:41:46;;;;;;;8.40;7.70;;;;;;;31.57;41.80;99570.08;218342;1256;139709;-80
2023/09/12 11:46:50;;;;;;;8.80;8.00;;;;;;;31.46;40.69;99572.33;217325;1261;141985;-86
2023/09/12 11:51:55;;;;;;;12.60;8.00;;;;;;;31.22;40.59;99569.31;218382;1257;140436;-78
2023/09/12 11:57:03;;;;;;;7.60;6.90;;;;;;;31.22;40.97;99569.16;217673;1261;140482;-80
2023/09/12 12:02:10;;;;;;;12.20;8.60;;;;;;;31.20;40.96;99563.80;218078;1257;161297;-83
2023/09/12 12:07:14;;;;;;;9.20;8.20;;;;;;;31.20;40.72;99566.08;218079;1261;140336;-84
2023/09/12 12:12:17;;;;;;;8.10;7.40;;;;;;;31.19;40.30;99554.91;217532;1256;139766;-79
2023/09/12 12:17:20;;;;;;;9.50;8.60;;;;;;;31.07;40.03;99551.21;217375;1262;139864;-82
2023/09/12 12:22:23;;;;;;;8.30;7.50;;;;;;;31.01;40.30;99551.69;217550;1262;139031;-83
2023/09/12 12:27:28;;;;;;;8.70;8.00;;;;;;;31.12;40.22;99549.72;217587;1256;140438;-86
2023/09/12 12:32:32;;;;;;;8.70;7.90;;;;;;;31.13;40.05;99548.39;217692;1261;140207;-88
2023/09/12 12:37:37;;;;;;;;;;;;;;;31.18;40.33;99540.66;217493;1261;140099;-84
2023/09/12 12:42:42;;;;;;;14.10;9.50;;;;;;;31.05;39.85;99541.43;217971;1256;126242;-80
2023/09/12 12:48:00;;;;;;;9.80;8.80;;;;;;;30.98;40.21;99537.88;217425;1256;139794;-79
2023/09/12 12:53:05;;;;;;;12.20;9.80;;;;;;;31.01;39.96;99533.05;218055;1260;140339;-76
2023/09/12 12:58:08;;;;;;;9.40;8.60;;;;;;;30.95;39.04;99528.26;217391;1257;139427;-78
2023/09/12 13:03:11;;;;;;;10.30;9.30;;;;;;;30.66;39.43;99524.84;218294;1257;140383;-77
2023/09/12 13:08:14;;;;;;;8.70;7.90;;;;;;;30.54;39.35;99520.36;217516;1257;139704;-89
2023/09/12 13:13:18;;;;;;;7.60;6.80;;;;;;;30.38;39.69;99520.92;217723;1259;139120;-84
2023/09/12 13:18:22;;;;;;;14.50;8.70;;;;;;;30.40;40.00;99522.84;217485;1261;140246;-82
2023/09/12 13:23:26;;;;;;;11.80;8.90;;;;;;;30.45;39.81;99522.27;217380;1257;139288;-79
2023/09/12 13:28:31;;;;;;;10.20;9.20;;;;;;;30.51;39.74;99522.28;218154;1256;140078;-84
2023/09/12 13:33:36;;;;;;;9.60;8.80;;;;;;;30.54;39.77;99522.47;217790;1261;140330;-77
2023/09/12 13:38:41;;;;;;;13.80;9.50;;;;;;;30.60;40.39;99528.54;217636;1257;220059;-84
2023/09/12 13:43:46;;;;;;;9.40;8.60;;;;;;;30.60;39.90;99526.48;218016;1261;140863;-81
2023/09/12 13:48:49;;;;;;;9.70;8.90;;;;;;;30.46;39.91;99524.49;217869;1261;138978;-83
2023/09/12 13:53:52;;;;;;;9.20;8.40;;;;;;;30.41;39.53;99523.80;217608;1257;140095;-76
2023/09/12 13:58:55;;;;;;;9.10;8.30;;;;;;;30.36;39.40;99516.73;218317;1256;139407;-80
2023/09/12 14:03:59;;;;;;;11.10;9.90;;;;;;;30.35;39.34;99511.84;217603;1261;139340;-78
2023/09/12 14:09:04;;;;;;;10.10;8.90;;;;;;;30.34;39.94;99509.94;217645;1256;139517;-82
2023/09/12 14:14:06;;;;;;;11.10;9.00;;;;;;;30.29;41.23;99507.84;218012;1261;140220;-78
2023/09/12 14:19:20;;;;;;;9.00;8.20;;;;;;;30.21;41.07;99510.72;219200;1261;140791;-76
2023/09/12 14:24:23;;;;;;;9.10;8.30;;;;;;;30.11;40.55;99510.10;217705;1261;140207;-81
2023/09/12 14:29:30;;;;;;;8.80;8.00;;;;;;;30.06;40.03;99505.63;217997;1261;231901;-78
2023/09/12 14:34:34;;;;;;;10.60;9.60;;;;;;;29.90;40.07;99506.01;217795;1258;139276;-84
2023/09/12 14:39:37;;;;;;;9.90;9.10;;;;;;;29.80;39.90;99505.52;217551;1262;203290;-84
2023/09/12 14:44:41;;;;;;;8.70;7.90;;;;;;;29.77;40.76;99507.11;217619;1257;139521;-83
2023/09/12 14:49:44;;;;;;;11.20;10.00;;;;;;;29.67;41.01;99509.71;217659;1258;140195;-85
2023/09/12 14:54:54;;;;;;;10.10;8.40;;;;;;;29.52;41.53;99515.89;217616;1256;233150;-81
2023/09/12 14:59:57;;;;;;;10.20;9.20;;;;;;;29.39;41.12;99518.16;217623;1257;139709;-78
2023/09/12 15:05:03;;;;;;;10.30;9.20;;;;;;;29.31;41.84;99515.59;218338;1262;139134;-78
2023/09/12 15:10:11;;;;;;;17.70;9.30;;;;;;;29.22;42.76;99512.83;217726;1259;139820;-78
2023/09/12 15:15:15;;;;;;;19.30;10.40;;;;;;;29.09;43.81;99508.66;217569;1262;139490;-81
2023/09/12 15:20:19;;;;;;;10.30;9.30;;;;;;;28.95;44.81;99503.39;218089;1260;140389;-89
2023/09/12 15:25:22;;;;;;;10.60;9.70;;;;;;;28.78;45.18;99508.61;217798;1262;140291;-83
2023/09/12 15:30:24;;;;;;;10.70;8.60;;;;;;;28.56;45.36;99510.27;217981;1257;139838;-78
2023/09/12 15:35:28;;;;;;;10.80;9.80;;;;;;;28.31;45.80;99511.13;217491;1263;231158;-85
2023/09/12 15:40:32;;;;;;;12.30;9.50;;;;;;;28.07;46.74;99507.20;217361;1261;139489;-73
2023/09/12 15:45:35;;;;;;;10.70;9.80;;;;;;;27.82;48.04;99513.35;218607;1260;139960;-72
2023/09/12 15:50:54;;;;;;;15.00;9.80;;;;;;;27.61;49.31;99512.45;219702;1260;139718;-76
2023/09/12 15:55:58;;;;;;;10.50;9.70;;;;;;;27.39;50.14;99512.58;217225;1261;140135;-74
2023/09/12 16:01:03;;;;;;;67.90;14.20;;;;;;;27.08;51.14;99509.27;219025;1262;140534;-72
2023/09/12 16:06:06;;;;;;;22.60;11.20;;;;;;;26.80;52.05;99511.60;217645;1257;139364;-78
2023/09/12 16:11:09;;;;;;;13.60;11.10;;;;;;;26.51;52.79;99509.80;217954;1259;140294;-77
2023/09/12 16:16:11;;;;;;;91.70;17.20;;;;;;;26.18;53.08;99504.91;217211;1258;140543;-78
2023/09/12 16:21:14;;;;;;;41.50;12.50;;;;;;;25.90;53.50;99508.11;217229;1261;140141;-79
2023/09/12 16:26:17;;;;;;;14.00;10.60;;;;;;;25.63;54.05;99510.11;217066;1261;140258;-74
2023/09/12 16:31:21;;;;;;;16.40;10.80;;;;;;;25.36;54.63;99503.80;218229;1262;139522;-78
2023/09/12 16:36:25;;;;;;;13.90;11.30;;;;;;;25.07;54.96;99509.44;217140;1260;140338;-75
2023/09/12 16:41:28;;;;;;;11.30;10.20;;;;;;;24.78;55.63;99510.16;217130;1260;139182;-81
2023/09/12 16:46:30;;;;;;;18.80;11.50;;;;;;;24.50;56.11;99511.76;217265;1257;139136;-82
2023/09/12 16:51:33;;;;;;;20.60;10.20;;;;;;;24.24;56.82;99508.85;217221;1261;139017;-81
2023/09/12 16:56:36;;;;;;;11.30;10.20;;;;;;;23.97;57.13;99505.52;217095;1264;209807;-81
2023/09/12 17:01:39;;;;;;;19.30;11.90;;;;;;;23.70;58.03;99511.51;217144;1263;139739;-79
2023/09/12 17:06:41;;;;;;;13.60;11.50;;;;;;;23.41;58.47;99510.38;217375;1262;140319;-76
2023/09/12 17:11:47;;;;;;;12.60;11.30;;;;;;;23.11;59.19;99511.34;217231;1257;139896;-79
2023/09/12 17:16:51;;;;;;;15.20;12.10;;;;;;;22.74;59.57;99512.66;217354;1261;140570;-82
2023/09/12 17:21:54;;;;;;;14.60;11.40;;;;;;;22.48;60.19;99509.13;218191;1257;140696;-83
2023/09/12 17:26:57;;;;;;;11.40;10.30;;;;;;;22.31;60.54;99513.27;217474;1257;140576;-83
2023/09/12 17:32:09;;;;;;;13.50;11.80;;;;;;;22.08;60.81;99511.39;217886;1258;140229;-80
2023/09/12 17:37:12;;;;;;;15.30;11.80;;;;;;;21.88;61.42;99512.27;217665;1257;141106;-81
2023/09/12 17:42:17;;;;;;;15.40;12.00;;;;;;;21.62;61.56;99512.18;217974;1260;141191;-74
2023/09/12 17:47:20;;;;;;;15.10;12.20;;;;;;;21.39;62.09;99511.95;217812;1261;141502;-78
2023/09/12 17:52:24;;;;;;;16.90;12.20;;;;;;;21.18;62.64;99513.87;217931;1257;142337;-75
2023/09/12 17:57:26;;;;;;;14.80;13.30;;;;;;;20.93;63.17;99513.24;218560;1260;141810;-69
2023/09/12 18:02:29;;;;;;;14.20;12.20;;;;;;;20.83;63.86;99516.06;218336;1257;140304;-84
2023/09/12 18:07:32;;;;;;;17.60;11.80;;;;;;;20.76;64.04;99520.11;218371;1260;142687;-80
2023/09/12 18:12:35;;;;;;;14.40;11.60;;;;;;;20.55;64.09;99518.94;217947;1257;139876;-84
2023/09/12 18:17:38;;;;;;;13.60;12.20;;;;;;;20.40;64.60;99521.52;218583;1257;140267;-73
2023/09/12 18:22:41;;;;;;;18.50;13.50;;;;;;;20.20;64.84;99518.90;218018;1258;139498;-79
2023/09/12 18:27:44;;;;;;;18.70;13.00;;;;;;;20.03;65.38;99522.01;217680;1260;140219;-78
2023/09/12 18:32:48;;;;;;;13.40;12.00;;;;;;;19.88;65.56;99523.56;218044;1260;141016;-78
2023/09/12 18:37:51;;;;;;;61.50;17.00;;;;;;;19.75;66.06;99526.14;217347;1260;141161;-75
2023/09/12 18:42:56;;;;;;;22.00;12.90;;;;;;;19.66;66.46;99528.25;217853;1257;140200;-81
2023/09/12 18:48:02;;;;;;;14.80;11.90;;;;;;;19.52;66.60;99534.89;217760;1260;141230;-75
2023/09/12 18:53:11;;;;;;;15.70;12.20;;;;;;;19.39;66.69;99535.48;217572;1260;142120;-83
2023/09/12 18:58:15;;;;;;;14.80;12.30;;;;;;;19.09;66.84;99532.70;218459;1260;141105;-82
2023/09/12 19:03:18;;;;;;;13.00;11.60;;;;;;;18.88;67.54;99536.51;217455;1257;140199;-77
2023/09/12 19:08:21;;;;;;;16.00;12.30;;;;;;;18.71;67.61;99536.54;217639;1260;140542;-76
2023/09/12 19:13:25;;;;;;;14.40;11.30;;;;;;;18.56;68.18;99537.34;217456;1260;142249;-82
2023/09/12 19:18:30;;;;;;;15.70;13.50;;;;;;;18.42;68.62;99540.11;217542;1257;140892;-77
2023/09/12 19:23:37;;;;;;;16.50;11.00;;;;;;;18.37;69.00;99543.09;218034;1258;140329;-76
2023/09/12 19:28:41;;;;;;;14.20;12.30;;;;;;;18.36;69.47;99536.52;218299;1256;142195;-73
2023/09/12 19:33:47;;;;;;;13.80;12.10;;;;;;;18.28;69.37;99536.48;217141;1260;531098;-74
2023/09/12 19:38:51;;;;;;;14.80;13.30;;;;;;;18.12;69.56;99534.57;217697;1260;142241;-75
2023/09/12 19:43:55;;;;;;;21.30;14.10;;;;;;;18.04;70.13;99539.20;217624;1257;141027;-74
2023/09/12 19:48:59;;;;;;;16.20;11.80;;;;;;;18.00;70.13;99543.73;217909;1257;142242;-73
2023/09/12 19:54:06;;;;;;;19.70;12.80;;;;;;;17.85;70.09;99536.24;218324;1257;142441;-77
2023/09/12 19:59:10;;;;;;;13.10;11.70;;;;;;;17.65;70.37;99535.21;218424;1257;142085;-85
2023/09/12 20:04:16;;;;;;;17.50;13.00;;;;;;;17.47;70.68;99539.91;218967;1260;141198;-72
2023/09/12 20:09:21;;;;;;;15.80;14.10;;;;;;;17.32;71.19;99539.03;218253;1256;141035;-70
2023/09/12 20:14:25;;;;;;;16.50;13.80;;;;;;;17.30;71.54;99548.16;218638;1257;141878;-79
2023/09/12 20:19:28;;;;;;;18.20;14.50;;;;;;;17.28;71.75;99548.45;218057;1257;140563;-85
2023/09/12 20:24:30;;;;;;;13.20;11.90;;;;;;;17.27;71.86;99546.57;217544;1256;140266;-73
2023/09/12 20:29:33;;;;;;;14.20;12.80;;;;;;;17.08;71.66;99542.90;218104;1257;141037;-81
2023/09/12 20:34:37;;;;;;;16.40;13.10;;;;;;;16.92;72.01;99543.18;217689;1257;142298;-80
2023/09/12 20:39:42;;;;;;;15.40;13.70;;;;;;;16.89;72.45;99538.95;218673;1256;141550;-77
2023/09/12 20:44:45;;;;;;;15.20;13.40;;;;;;;16.83;72.48;99539.16;217549;1256;142236;-73
2023/09/12 20:49:53;;;;;;;14.40;12.70;;;;;;;16.81;72.86;99537.25;217635;1257;141098;-73
2023/09/12 20:54:56;;;;;;;17.40;13.80;;;;;;;16.76;72.85;99539.29;217842;1260;140112;-76
2023/09/12 20:59:59;;;;;;;16.60;13.20;;;;;;;16.66;72.84;99539.33;218457;1256;140589;-76
2023/09/12 21:05:04;;;;;;;15.80;14.20;;;;;;;16.50;72.96;99541.45;218452;1260;140477;-72
2023/09/12 21:10:12;;;;;;;16.90;14.60;;;;;;;16.48;73.48;99545.57;218581;1257;140295;-78
2023/09/12 21:15:15;;;;;;;13.80;12.40;;;;;;;16.48;73.67;99543.67;218364;1260;140325;-80
2023/09/12 21:20:18;;;;;;;14.20;12.20;;;;;;;16.39;73.60;99543.83;217892;1260;140517;-72
2023/09/12 21:25:21;;;;;;;17.70;12.80;;;;;;;16.24;73.68;99545.34;217834;1260;141601;-76
2023/09/12 21:30:25;;;;;;;18.30;13.60;;;;;;;16.15;74.14;99548.63;218029;1257;141037;-77
2023/09/12 21:35:28;;;;;;;18.00;12.90;;;;;;;16.12;74.24;99549.30;217697;1256;140041;-81
2023/09/12 21:40:31;;;;;;;22.20;14.30;;;;;;;16.07;74.41;99550.23;218369;1257;140530;-71
2023/09/12 21:45:34;;;;;;;13.40;11.80;;;;;;;16.03;74.54;99546.09;218010;1257;140382;-77
2023/09/12 21:50:37;;;;;;;19.00;13.20;;;;;;;15.93;74.51;99546.39;218369;1257;139779;-78
2023/09/12 21:55:40;;;;;;;15.70;11.80;;;;;;;15.87;74.57;99545.95;217905;1259;142070;-76
2023/09/12 22:00:44;;;;;;;22.90;15.40;;;;;;;15.80;74.79;99544.77;218200;1257;140970;-79
2023/09/12 22:05:47;;;;;;;16.50;12.90;;;;;;;15.78;75.07;99545.05;217999;1257;139869;-81
2023/09/12 22:10:50;;;;;;;17.70;13.80;;;;;;;15.77;75.17;99548.55;218281;1256;141286;-76
2023/09/12 22:15:53;;;;;;;16.40;12.60;;;;;;;15.72;75.18;99552.54;218131;1257;141730;-68
2023/09/12 22:20:57;;;;;;;19.30;13.80;;;;;;;15.63;75.24;99549.87;217521;1260;140123;-72
2023/09/12 22:26:13;;;;;;;21.80;14.60;;;;;;;15.54;75.47;99553.48;217571;1257;140525;-72
2023/09/12 22:31:16;;;;;;;19.70;13.40;;;;;;;15.52;75.80;99552.61;217518;1259;140479;-71
2023/09/12 22:36:19;;;;;;;16.60;14.90;;;;;;;15.50;75.89;99552.13;217637;1260;142028;-72
2023/09/12 22:41:24;;;;;;;18.50;14.50;;;;;;;15.45;75.89;99555.52;217383;1261;140576;-73
2023/09/12 22:46:29;;;;;;;18.70;13.20;;;;;;;15.37;75.74;99557.45;217268;1257;140963;-72
2023/09/12 22:51:32;;;;;;;23.30;14.50;;;;;;;15.26;75.98;99552.90;217741;1257;140510;-71
2023/09/12 22:56:35;;;;;;;16.10;14.30;;;;;;;15.22;76.22;99549.80;218461;1256;209305;-72